Time;durP1;ratioP1;P1;durP2;ratioP2;P2;SDS_P1;SDS_P2;PMS_P1;PMS_P2;Temp;Humidity;BMP_temperature;BMP_pressure;BME280_temperature;BME280_humidity;BME280_pressure;Samples;Min_cycle;Max_cycle;Signal;HPM_P1;HPM_P2
2022/08/06 00:01:33;;;;;;;2.22;2.03;;;;;;;;;;6323656;28;20111;-80
2022/08/06 00:04:35;;;;;;;2.20;2.00;;;;;;;;;;6296706;28;20048;-80
2022/08/06 00:07:37;;;;;;;2.65;2.28;;;;;;;;;;6318826;28;20047;-80
2022/08/06 00:10:48;;;;;;;3.05;2.38;;;;;;;;;;6313441;28;20035;-80
2022/08/06 00:13:50;;;;;;;3.45;2.47;;;;;;;;;;6317140;28;20082;-80
2022/08/06 00:16:52;;;;;;;2.85;2.03;;;;;;;;;;6298163;28;20075;-80
2022/08/06 00:19:56;;;;;;;2.20;2.00;;;;;;;;;;6307671;28;20048;-80
2022/08/06 00:23:00;;;;;;;3.05;1.90;;;;;;;;;;6297846;28;20550;-80
2022/08/06 00:26:03;;;;;;;;;;;;;;;;;;6309964;28;20041;-81
2022/08/06 00:29:05;;;;;;;1.83;1.73;;;;;;;;;;6316618;28;19947;-80
2022/08/06 00:32:10;;;;;;;2.72;1.90;;;;;;;;;;6292467;28;20047;-80
2022/08/06 00:35:12;;;;;;;3.22;2.10;;;;;;;;;;6292308;28;20124;-80
2022/08/06 00:38:16;;;;;;;2.15;1.80;;;;;;;;;;6294393;28;20100;-80
2022/08/06 00:41:19;;;;;;;3.45;2.47;;;;;;;;;;6286701;28;20044;-80
2022/08/06 00:44:22;;;;;;;2.10;1.90;;;;;;;;;;6305879;28;20144;-80
2022/08/06 00:47:32;;;;;;;3.33;2.38;;;;;;;;;;6302646;28;20043;-80
2022/08/06 00:50:53;;;;;;;3.25;2.35;;;;;;;;;;6304908;28;21180;-80
2022/08/06 00:53:55;;;;;;;3.45;2.10;;;;;;;;;;6309312;28;20040;-80
2022/08/06 00:56:58;;;;;;;;;;;;;;;;;;6303812;28;20495;-79
2022/08/06 01:00:00;;;;;;;3.38;2.05;;;;;;;;;;6287556;28;20070;-80
2022/08/06 01:03:02;;;;;;;2.65;1.88;;;;;;;;;;6303449;28;20055;-80
2022/08/06 01:06:04;;;;;;;2.38;2.05;;;;;;;;;;6313506;28;20086;-80
2022/08/06 01:09:25;;;;;;;1.83;1.73;;;;;;;;;;6287298;28;20460;-80
2022/08/06 01:12:32;;;;;;;2.97;2.17;;;;;;;;;;6284309;28;20404;-80
2022/08/06 01:15:37;;;;;;;2.90;2.20;;;;;;;;;;6318975;28;20048;-80
2022/08/06 01:19:22;;;;;;;2.75;2.00;;;;;;;;;;6293566;28;20739;-80
2022/08/06 01:23:05;;;;;;;4.05;2.40;;;;;;;;;;6288847;28;20177;-80
2022/08/06 01:26:27;;;;;;;4.80;2.40;;;;;;;;;;6300390;28;20050;-80
2022/08/06 01:29:35;;;;;;;2.38;2.17;;;;;;;;;;6319110;28;20047;-80
2022/08/06 01:33:10;;;;;;;4.63;2.33;;;;;;;;;;6313972;28;20065;-80
2022/08/06 01:36:39;;;;;;;3.03;2.22;;;;;;;;;;6286493;28;20048;-80
2022/08/06 01:39:55;;;;;;;3.47;2.20;;;;;;;;;;6310964;28;20123;-80
2022/08/06 01:43:08;;;;;;;3.15;2.30;;;;;;;;;;6307550;28;20071;-80
2022/08/06 01:46:31;;;;;;;4.57;2.47;;;;;;;;;;6301916;28;20062;-80
2022/08/06 01:49:37;;;;;;;3.38;2.40;;;;;;;;;;6295845;28;20046;-80
2022/08/06 01:53:02;;;;;;;3.53;2.80;;;;;;;;;;6269063;28;20055;-80
2022/08/06 01:56:06;;;;;;;2.85;2.03;;;;;;;;;;6292701;28;20079;-80
2022/08/06 01:59:12;;;;;;;2.38;2.17;;;;;;;;;;6285912;28;20052;-81
2022/08/06 02:02:19;;;;;;;3.50;2.00;;;;;;;;;;6281976;28;20102;-80
2022/08/06 02:05:30;;;;;;;3.83;2.40;;;;;;;;;;6291824;28;20047;-80
2022/08/06 02:08:36;;;;;;;2.50;1.95;;;;;;;;;;6312118;28;20155;-81
2022/08/06 02:11:49;;;;;;;2.70;2.33;;;;;;;;;;6285816;28;20483;-80
2022/08/06 02:15:15;;;;;;;3.88;2.15;;;;;;;;;;6306553;28;20041;-81
2022/08/06 02:18:19;;;;;;;3.42;2.30;;;;;;;;;;6307631;28;20055;-80
2022/08/06 02:21:37;;;;;;;3.83;2.20;;;;;;;;;;6290478;28;20164;-81
2022/08/06 02:24:40;;;;;;;3.38;2.40;;;;;;;;;;6282037;28;20052;-80
2022/08/06 02:27:47;;;;;;;3.20;2.30;;;;;;;;;;6300124;28;20423;-81
2022/08/06 02:31:00;;;;;;;2.45;2.15;;;;;;;;;;6302431;28;20075;-80
2022/08/06 02:34:06;;;;;;;3.13;2.25;;;;;;;;;;6317854;28;20054;-80
2022/08/06 02:37:35;;;;;;;5.25;2.63;;;;;;;;;;6286645;28;20044;-81
2022/08/06 02:41:05;;;;;;;2.92;2.47;;;;;;;;;;6289536;28;20107;-81
2022/08/06 02:44:19;;;;;;;4.32;2.58;;;;;;;;;;6294173;28;20062;-80
2022/08/06 02:47:27;;;;;;;5.82;2.72;;;;;;;;;;6310184;28;20044;-80
2022/08/06 02:50:49;;;;;;;3.47;2.40;;;;;;;;;;6281417;28;20044;-81
2022/08/06 02:54:00;;;;;;;3.92;2.60;;;;;;;;;;6312406;28;20487;-81
2022/08/06 02:57:12;;;;;;;6.85;2.50;;;;;;;;;;6316597;28;20180;-81
2022/08/06 03:00:17;;;;;;;3.97;2.30;;;;;;;;;;6309982;28;20040;-81
2022/08/06 03:03:21;;;;;;;4.93;2.75;;;;;;;;;;6301042;28;20212;-81
2022/08/06 03:06:37;;;;;;;4.10;2.65;;;;;;;;;;6309574;28;20055;-81
2022/08/06 03:09:40;;;;;;;;;;;;;;;;;;6301942;28;20048;-81
2022/08/06 03:12:52;;;;;;;5.38;2.80;;;;;;;;;;6306907;28;20023;-81
2022/08/06 03:15:58;;;;;;;3.00;2.65;;;;;;;;;;6306020;28;20044;-81
2022/08/06 03:19:03;;;;;;;3.35;2.83;;;;;;;;;;6304175;28;20044;-81
2022/08/06 03:22:27;;;;;;;2.50;2.30;;;;;;;;;;6301678;28;20050;-83
2022/08/06 03:25:39;;;;;;;3.08;2.40;;;;;;;;;;6299397;28;20123;-83
2022/08/06 03:28:45;;;;;;;3.83;2.50;;;;;;;;;;6318644;28;20503;-84
2022/08/06 03:31:47;;;;;;;2.83;2.50;;;;;;;;;;6318736;28;20040;-83
2022/08/06 03:35:09;;;;;;;4.85;2.92;;;;;;;;;;6277176;28;20096;-83
2022/08/06 03:38:50;;;;;;;2.95;2.65;;;;;;;;;;6298648;28;20047;-83
2022/08/06 03:41:57;;;;;;;2.53;2.33;;;;;;;;;;6299067;28;20047;-83
2022/08/06 03:45:10;;;;;;;2.97;2.65;;;;;;;;;;6287727;28;20058;-84
2022/08/06 03:48:40;;;;;;;3.58;2.40;;;;;;;;;;6288020;28;20039;-83
2022/08/06 03:51:44;;;;;;;2.35;2.13;;;;;;;;;;6310119;28;20044;-84
2022/08/06 03:54:57;;;;;;;2.30;2.05;;;;;;;;;;6310427;28;20044;-83
2022/08/06 03:58:11;;;;;;;4.13;2.70;;;;;;;;;;6289377;28;20135;-83
2022/08/06 04:01:34;;;;;;;3.20;2.45;;;;;;;;;;6285155;28;20079;-83
2022/08/06 04:04:45;;;;;;;5.32;2.78;;;;;;;;;;6289924;28;20040;-84
2022/08/06 04:07:53;;;;;;;4.22;2.25;;;;;;;;;;6283330;28;20049;-83
2022/08/06 04:10:58;;;;;;;3.03;2.70;;;;;;;;;;6294539;28;20067;-83
2022/08/06 04:14:02;;;;;;;3.00;2.38;;;;;;;;;;6265565;28;20405;-84
2022/08/06 04:17:12;;;;;;;3.03;2.70;;;;;;;;;;6243674;28;20391;-83
2022/08/06 04:20:20;;;;;;;4.22;2.90;;;;;;;;;;6284069;28;20052;-83
2022/08/06 04:23:43;;;;;;;4.28;3.00;;;;;;;;;;6270663;28;20051;-83
2022/08/06 04:26:49;;;;;;;3.72;2.50;;;;;;;;;;6302253;28;20169;-83
2022/08/06 04:29:54;;;;;;;2.83;2.35;;;;;;;;;;6261674;28;20481;-83
2022/08/06 04:33:03;;;;;;;2.85;2.50;;;;;;;;;;6301156;28;20044;-83
2022/08/06 04:36:07;;;;;;;4.28;2.65;;;;;;;;;;6307386;28;20043;-83
2022/08/06 04:39:26;;;;;;;3.80;2.50;;;;;;;;;;6288522;28;20096;-82
2022/08/06 04:42:48;;;;;;;;;;;;;;;;;;6302537;28;20059;-83
2022/08/06 04:45:51;;;;;;;5.13;2.65;;;;;;;;;;6316061;28;19919;-83
2022/08/06 04:49:13;;;;;;;6.97;3.35;;;;;;;;;;6301990;28;20048;-83
2022/08/06 04:52:23;;;;;;;4.60;3.13;;;;;;;;;;6312716;28;20522;-83
2022/08/06 04:55:47;;;;;;;3.38;2.50;;;;;;;;;;6298327;28;20273;-86
2022/08/06 04:59:07;;;;;;;3.70;2.83;;;;;;;;;;6299712;28;20466;-83
2022/08/06 05:02:11;;;;;;;3.35;2.47;;;;;;;;;;6301865;28;20044;-83
2022/08/06 05:05:14;;;;;;;5.32;2.65;;;;;;;;;;6280882;28;20051;-83
2022/08/06 05:08:25;;;;;;;3.53;2.63;;;;;;;;;;6270080;28;20048;-83
2022/08/06 05:11:48;;;;;;;4.22;2.67;;;;;;;;;;6280430;28;20105;-84
2022/08/06 05:15:10;;;;;;;3.35;2.30;;;;;;;;;;6301825;28;20508;-84
2022/08/06 05:18:20;;;;;;;3.58;2.65;;;;;;;;;;6280146;28;20052;-84
2022/08/06 05:21:44;;;;;;;4.50;2.45;;;;;;;;;;6275758;28;20567;-85
2022/08/06 05:25:08;;;;;;;4.82;2.38;;;;;;;;;;6221929;28;20044;-83
2022/08/06 05:28:31;;;;;;;3.60;2.17;;;;;;;;;;6257512;28;20036;-82
2022/08/06 05:32:02;;;;;;;2.30;2.10;;;;;;;;;;6253023;28;20040;-83
2022/08/06 05:35:14;;;;;;;2.88;2.22;;;;;;;;;;6242894;28;20044;-83
2022/08/06 05:38:19;;;;;;;2.15;1.95;;;;;;;;;;6268218;28;20040;-84
2022/08/06 05:41:34;;;;;;;2.97;2.55;;;;;;;;;;6322965;28;20054;-81
2022/08/06 05:44:40;;;;;;;2.28;1.80;;;;;;;;;;6317894;28;20090;-81
2022/08/06 05:47:44;;;;;;;3.03;2.00;;;;;;;;;;6298300;28;20050;-81
2022/08/06 05:51:01;;;;;;;2.08;1.80;;;;;;;;;;6300789;28;20105;-81
2022/08/06 05:54:19;;;;;;;4.82;1.95;;;;;;;;;;6295508;28;20078;-81
2022/08/06 05:57:29;;;;;;;2.97;1.83;;;;;;;;;;6315494;28;20060;-81
2022/08/06 06:00:43;;;;;;;3.67;1.92;;;;;;;;;;6308215;28;20676;-81
2022/08/06 06:03:46;;;;;;;1.73;1.63;;;;;;;;;;6310197;28;20067;-85
2022/08/06 06:06:51;;;;;;;2.17;1.60;;;;;;;;;;6309542;28;20048;-85
2022/08/06 06:09:56;;;;;;;4.07;1.80;;;;;;;;;;6318350;28;20044;-82
2022/08/06 06:13:06;;;;;;;2.10;1.38;;;;;;;;;;6286731;28;20040;-84
2022/08/06 06:17:04;;;;;;;1.80;1.70;;;;;;;;;;6328244;28;20044;-82
2022/08/06 06:20:12;;;;;;;2.42;1.60;;;;;;;;;;6315297;28;20052;-83
2022/08/06 06:23:29;;;;;;;1.73;1.40;;;;;;;;;;6302018;28;20047;-83
2022/08/06 06:26:58;;;;;;;1.60;1.50;;;;;;;;;;6304314;28;20521;-83
2022/08/06 06:30:04;;;;;;;4.00;1.50;;;;;;;;;;6318500;28;20127;-83
2022/08/06 06:34:22;;;;;;;2.35;1.52;;;;;;;;;;6237570;28;20044;-82
2022/08/06 06:37:44;;;;;;;1.40;1.30;;;;;;;;;;6158791;28;20069;-84
2022/08/06 06:41:26;;;;;;;2.83;1.25;;;;;;;;;;6214367;28;20037;-84
2022/08/06 06:44:50;;;;;;;3.03;1.35;;;;;;;;;;6218340;28;20067;-83
2022/08/06 06:48:43;;;;;;;1.15;1.13;;;;;;;;;;6264910;28;20047;-84
2022/08/06 06:51:58;;;;;;;2.67;1.30;;;;;;;;;;6258765;28;20036;-83
2022/08/06 06:55:44;;;;;;;1.45;1.13;;;;;;;;;;6266228;28;20113;-83
2022/08/06 06:59:06;;;;;;;2.00;1.10;;;;;;;;;;6242083;28;21422;-83
2022/08/06 07:02:22;;;;;;;1.52;1.00;;;;;;;;;;6288455;28;20047;-82
2022/08/06 07:05:30;;;;;;;1.10;1.00;;;;;;;;;;6295673;28;20139;-81
2022/08/06 07:08:53;;;;;;;1.60;1.27;;;;;;;;;;6309446;28;20045;-82
2022/08/06 07:11:57;;;;;;;1.67;0.98;;;;;;;;;;6294319;28;20041;-83
2022/08/06 07:15:07;;;;;;;1.50;1.10;;;;;;;;;;6297143;28;20051;-83
2022/08/06 07:18:21;;;;;;;3.85;0.90;;;;;;;;;;6307122;28;20123;-83
2022/08/06 07:21:30;;;;;;;1.02;0.70;;;;;;;;;;6288672;28;20075;-83
2022/08/06 07:24:35;;;;;;;1.77;1.20;;;;;;;;;;6304299;28;20040;-83
2022/08/06 07:27:48;;;;;;;0.75;0.75;;;;;;;;;;6293157;28;20038;-84
2022/08/06 07:30:58;;;;;;;2.03;1.23;;;;;;;;;;6283580;28;20051;-83
2022/08/06 07:34:26;;;;;;;1.85;1.00;;;;;;;;;;6273938;28;20048;-84
2022/08/06 07:38:22;;;;;;;2.45;1.30;;;;;;;;;;6265441;27;20411;-83
2022/08/06 07:41:43;;;;;;;2.15;1.00;;;;;;;;;;6228334;28;20048;-84
2022/08/06 07:45:09;;;;;;;2.92;1.00;;;;;;;;;;6241338;28;20048;-83
2022/08/06 07:48:22;;;;;;;2.45;1.00;;;;;;;;;;6281515;28;20502;-83
2022/08/06 07:51:33;;;;;;;2.63;1.00;;;;;;;;;;6281232;28;20048;-83
2022/08/06 07:54:37;;;;;;;1.75;1.10;;;;;;;;;;6268096;28;20044;-84
2022/08/06 07:57:40;;;;;;;;;;;;;;;;;;6299848;28;20103;-84
2022/08/06 08:00:55;;;;;;;1.00;0.80;;;;;;;;;;6297189;28;19955;-84
2022/08/06 08:07:37;;;;;;;2.83;0.95;;;;;;;;;;6264161;28;20040;-84
2022/08/06 08:10:58;;;;;;;1.55;0.90;;;;;;;;;;6298126;28;21570;-85
2022/08/06 08:14:03;;;;;;;2.00;0.80;;;;;;;;;;6301562;28;20044;-83
2022/08/06 08:17:06;;;;;;;2.67;0.90;;;;;;;;;;6296865;28;20051;-83
2022/08/06 08:20:09;;;;;;;2.08;0.80;;;;;;;;;;6280617;28;20113;-84
2022/08/06 08:23:21;;;;;;;2.55;0.80;;;;;;;;;;6290160;28;20099;-84
2022/08/06 08:26:34;;;;;;;1.02;0.70;;;;;;;;;;6312820;28;20044;-84
2022/08/06 08:29:56;;;;;;;2.92;0.80;;;;;;;;;;6297363;28;20065;-84
2022/08/06 08:33:00;;;;;;;1.40;0.70;;;;;;;;;;6322042;28;20058;-84
2022/08/06 08:36:06;;;;;;;1.80;0.80;;;;;;;;;;6288532;28;20047;-84
2022/08/06 08:39:12;;;;;;;2.08;0.70;;;;;;;;;;6282782;28;20463;-84
2022/08/06 08:42:18;;;;;;;3.20;0.68;;;;;;;;;;6289368;28;20051;-84
2022/08/06 08:45:36;;;;;;;1.58;0.77;;;;;;;;;;6292882;28;20048;-84
2022/08/06 08:48:40;;;;;;;1.27;0.80;;;;;;;;;;6293561;28;20044;-83
2022/08/06 08:51:46;;;;;;;2.03;0.70;;;;;;;;;;6305364;28;20044;-83
2022/08/06 08:54:54;;;;;;;0.90;0.80;;;;;;;;;;6277226;28;20064;-84
2022/08/06 08:57:57;;;;;;;1.20;0.80;;;;;;;;;;6297719;28;20046;-83
2022/08/06 09:01:20;;;;;;;3.97;1.30;;;;;;;;;;6294874;28;20068;-83
2022/08/06 09:04:42;;;;;;;1.13;0.80;;;;;;;;;;6295338;28;20044;-83
2022/08/06 09:07:47;;;;;;;2.85;2.03;;;;;;;;;;6277491;28;20234;-82
2022/08/06 09:11:03;;;;;;;0.80;0.80;;;;;;;;;;6307806;28;20091;-82
2022/08/06 09:14:08;;;;;;;1.27;0.90;;;;;;;;;;6301258;28;20047;-82
2022/08/06 09:17:11;;;;;;;1.70;0.82;;;;;;;;;;6311655;28;20066;-83
2022/08/06 09:20:13;;;;;;;2.47;0.85;;;;;;;;;;6314166;28;20048;-83
2022/08/06 09:23:17;;;;;;;2.53;0.80;;;;;;;;;;6313657;28;20055;-83
2022/08/06 09:26:20;;;;;;;0.70;0.70;;;;;;;;;;6312829;28;20097;-85
2022/08/06 09:29:49;;;;;;;3.45;1.20;;;;;;;;;;6287713;28;20056;-84
2022/08/06 09:33:12;;;;;;;1.80;0.90;;;;;;;;;;6296090;28;20039;-84
2022/08/06 09:36:42;;;;;;;1.27;0.63;;;;;;;;;;6278831;28;20139;-83
2022/08/06 09:39:46;;;;;;;1.13;0.60;;;;;;;;;;6286474;28;20478;-84
2022/08/06 09:43:06;;;;;;;1.90;0.60;;;;;;;;;;6306579;28;20609;-82
2022/08/06 09:46:08;;;;;;;1.65;0.77;;;;;;;;;;6312004;28;20631;-82
2022/08/06 09:49:12;;;;;;;1.10;0.60;;;;;;;;;;6286196;28;20135;-82
2022/08/06 09:52:34;;;;;;;1.60;0.60;;;;;;;;;;6283556;28;20036;-82
2022/08/06 09:55:36;;;;;;;1.80;0.77;;;;;;;;;;6307233;28;20798;-83
2022/08/06 09:58:42;;;;;;;1.10;0.75;;;;;;;;;;6306584;28;20044;-83
2022/08/06 10:01:45;;;;;;;0.75;0.60;;;;;;;;;;6312586;28;20083;-83
2022/08/06 10:04:51;;;;;;;1.58;0.60;;;;;;;;;;6308023;28;20174;-83
2022/08/06 10:08:10;;;;;;;2.58;0.60;;;;;;;;;;6302406;28;20048;-84
2022/08/06 10:11:15;;;;;;;1.02;0.52;;;;;;;;;;6330803;28;20083;-83
2022/08/06 10:14:32;;;;;;;3.13;0.85;;;;;;;;;;6302960;28;20092;-84
2022/08/06 10:17:34;;;;;;;1.95;0.70;;;;;;;;;;6318628;28;20131;-82
2022/08/06 10:21:25;;;;;;;2.30;0.60;;;;;;;;;;6310889;28;20043;-82
2022/08/06 10:24:42;;;;;;;1.58;0.50;;;;;;;;;;6317308;28;20023;-86
2022/08/06 10:27:54;;;;;;;1.75;0.50;;;;;;;;;;6310075;28;20047;-82
2022/08/06 10:30:58;;;;;;;0.40;0.40;;;;;;;;;;6288822;28;20099;-81
2022/08/06 10:34:09;;;;;;;1.52;0.60;;;;;;;;;;6307154;28;20699;-82
2022/08/06 10:37:12;;;;;;;2.38;0.60;;;;;;;;;;6291936;28;20058;-83
2022/08/06 10:40:35;;;;;;;1.08;0.50;;;;;;;;;;6301700;28;20055;-83
2022/08/06 10:43:40;;;;;;;0.73;0.60;;;;;;;;;;6304286;28;20769;-83
2022/08/06 10:46:45;;;;;;;2.65;0.73;;;;;;;;;;6305411;28;20044;-84
2022/08/06 10:49:48;;;;;;;1.43;0.40;;;;;;;;;;6278539;28;20054;-82
2022/08/06 10:53:10;;;;;;;1.77;0.50;;;;;;;;;;6295043;28;20530;-85
2022/08/06 10:56:33;;;;;;;2.35;0.75;;;;;;;;;;6296802;28;20048;-83
2022/08/06 10:59:43;;;;;;;1.58;0.73;;;;;;;;;;6316600;28;20035;-82
2022/08/06 11:03:09;;;;;;;0.68;0.50;;;;;;;;;;6315136;28;20047;-82
2022/08/06 11:06:14;;;;;;;1.33;0.40;;;;;;;;;;6267751;28;20040;-82
2022/08/06 11:14:20;;;;;;;0.95;0.50;;;;;;;;;;6256559;28;20033;-82
2022/08/06 11:17:42;;;;;;;1.20;0.53;;;;;;;;;;6299506;28;20052;-82
2022/08/06 11:20:46;;;;;;;1.35;0.57;;;;;;;;;;6304121;28;20508;-82
2022/08/06 11:24:00;;;;;;;0.50;0.40;;;;;;;;;;6285273;28;20159;-82
2022/08/06 11:27:02;;;;;;;0.50;0.50;;;;;;;;;;6318485;28;20106;-82
2022/08/06 11:30:12;;;;;;;0.63;0.32;;;;;;;;;;6304271;28;20127;-82
2022/08/06 11:33:17;;;;;;;;;;;;;;;;;;6276801;28;20113;-82
2022/08/06 11:36:27;;;;;;;1.15;0.40;;;;;;;;;;6296834;28;19927;-82
2022/08/06 11:40:05;;;;;;;2.28;0.40;;;;;;;;;;6297021;28;20048;-82
2022/08/06 11:43:28;;;;;;;3.83;0.45;;;;;;;;;;6256805;28;20446;-82
2022/08/06 11:46:40;;;;;;;;;;;;;;;;;;6283505;28;20548;-82
2022/08/06 11:49:49;;;;;;;1.20;0.60;;;;;;;;;;6268173;28;20591;-83
2022/08/06 11:53:00;;;;;;;1.10;0.40;;;;;;;;;;6235945;28;20104;-82
2022/08/06 11:56:04;;;;;;;0.93;0.40;;;;;;;;;;6264010;28;20047;-82
2022/08/06 11:59:13;;;;;;;0.77;0.40;;;;;;;;;;6263840;28;20056;-82
2022/08/06 12:02:36;;;;;;;1.13;0.40;;;;;;;;;;6313242;28;20044;-82
2022/08/06 12:05:42;;;;;;;0.95;0.47;;;;;;;;;;6311058;28;20039;-82
2022/08/06 12:09:12;;;;;;;1.17;0.50;;;;;;;;;;6312054;28;20039;-82
2022/08/06 12:12:48;;;;;;;0.68;0.60;;;;;;;;;;6292748;28;20082;-82
2022/08/06 12:15:50;;;;;;;1.55;0.65;;;;;;;;;;6307086;28;20044;-82
2022/08/06 12:19:14;;;;;;;0.70;0.30;;;;;;;;;;6297537;28;20194;-82
2022/08/06 12:22:19;;;;;;;1.00;0.50;;;;;;;;;;6304740;28;20060;-82
2022/08/06 12:25:41;;;;;;;0.73;0.40;;;;;;;;;;6307454;28;20043;-82
2022/08/06 12:28:48;;;;;;;0.52;0.50;;;;;;;;;;6317498;28;20074;-83
2022/08/06 12:31:50;;;;;;;0.60;0.47;;;;;;;;;;6299790;28;20048;-83
2022/08/06 12:34:53;;;;;;;1.08;0.50;;;;;;;;;;6286072;28;20434;-83
2022/08/06 12:38:00;;;;;;;1.17;0.50;;;;;;;;;;6315908;28;20055;-82
2022/08/06 12:41:05;;;;;;;2.05;0.63;;;;;;;;;;6321860;28;20040;-82
2022/08/06 12:44:13;;;;;;;0.60;0.60;;;;;;;;;;6310141;28;20055;-82
2022/08/06 12:47:15;;;;;;;1.60;0.40;;;;;;;;;;6291183;28;20044;-82
2022/08/06 12:50:18;;;;;;;0.90;0.60;;;;;;;;;;6268769;28;20044;-82
2022/08/06 12:53:30;;;;;;;1.52;0.40;;;;;;;;;;6306711;28;20040;-82
2022/08/06 12:56:34;;;;;;;;;;;;;;;;;;6281260;28;20056;-82
2022/08/06 12:59:38;;;;;;;0.73;0.50;;;;;;;;;;6313202;28;20286;-82
2022/08/06 13:02:47;;;;;;;1.60;0.47;;;;;;;;;;6319789;28;20466;-82
2022/08/06 13:05:56;;;;;;;2.15;0.63;;;;;;;;;;6274370;28;20050;-82
2022/08/06 13:09:12;;;;;;;2.15;0.50;;;;;;;;;;6303149;28;20123;-82
2022/08/06 13:12:18;;;;;;;0.90;0.40;;;;;;;;;;6319502;28;20043;-83
2022/08/06 13:15:21;;;;;;;0.60;0.40;;;;;;;;;;6282616;28;20056;-83
2022/08/06 13:18:25;;;;;;;0.82;0.40;;;;;;;;;;6294771;28;20071;-83
2022/08/06 13:21:58;;;;;;;0.70;0.40;;;;;;;;;;6295289;28;20087;-83
2022/08/06 13:25:13;;;;;;;1.35;0.65;;;;;;;;;;6306200;28;20076;-83
2022/08/06 13:29:07;;;;;;;0.65;0.40;;;;;;;;;;6299243;28;20145;-83
2022/08/06 13:32:32;;;;;;;1.90;0.50;;;;;;;;;;6293962;28;20415;-83
2022/08/06 13:35:37;;;;;;;0.88;0.43;;;;;;;;;;6258184;28;20039;-84
2022/08/06 13:38:39;;;;;;;2.25;0.50;;;;;;;;;;6274165;28;20102;-84
2022/08/06 13:41:43;;;;;;;1.50;0.70;;;;;;;;;;6260285;28;20040;-83
2022/08/06 13:44:57;;;;;;;1.25;0.50;;;;;;;;;;6293338;28;20067;-83
2022/08/06 13:48:07;;;;;;;0.93;0.40;;;;;;;;;;6317511;28;20048;-84
2022/08/06 13:51:25;;;;;;;1.08;0.40;;;;;;;;;;6311191;28;20441;-84
2022/08/06 13:54:30;;;;;;;1.48;0.60;;;;;;;;;;6300516;28;20052;-83
2022/08/06 13:57:41;;;;;;;1.17;0.50;;;;;;;;;;6313770;28;20055;-83
2022/08/06 14:00:46;;;;;;;1.58;0.50;;;;;;;;;;6303152;28;20040;-83
2022/08/06 14:03:49;;;;;;;1.95;0.40;;;;;;;;;;6286224;28;20074;-83
2022/08/06 14:06:55;;;;;;;0.68;0.40;;;;;;;;;;6310884;28;20095;-83
2022/08/06 14:10:00;;;;;;;0.30;0.30;;;;;;;;;;6274326;28;20052;-83
2022/08/06 14:13:17;;;;;;;0.60;0.50;;;;;;;;;;6310019;28;20063;-82
2022/08/06 14:16:21;;;;;;;0.93;0.47;;;;;;;;;;6307090;28;20641;-84
2022/08/06 14:19:25;;;;;;;0.80;0.40;;;;;;;;;;6321602;28;20105;-82
2022/08/06 14:22:47;;;;;;;3.60;0.50;;;;;;;;;;6313806;28;20078;-83
2022/08/06 14:25:50;;;;;;;0.77;0.50;;;;;;;;;;6287998;28;20044;-82
2022/08/06 14:29:04;;;;;;;0.35;0.30;;;;;;;;;;6316064;28;20043;-81
2022/08/06 14:32:26;;;;;;;1.45;0.50;;;;;;;;;;6337264;28;20055;-81
2022/08/06 14:35:27;;;;;;;1.55;0.50;;;;;;;;;;6307027;28;20094;-81
2022/08/06 14:38:40;;;;;;;1.30;0.90;;;;;;;;;;6333060;28;20044;-82
2022/08/06 14:45:06;;;;;;;1.40;0.60;;;;;;;;;;6330037;28;20057;-81
2022/08/06 14:48:08;;;;;;;1.50;0.43;;;;;;;;;;6325545;28;20044;-83
2022/08/06 14:51:10;;;;;;;5.55;0.60;;;;;;;;;;6320860;28;20107;-82
2022/08/06 14:54:15;;;;;;;1.27;0.75;;;;;;;;;;6325301;28;20044;-82
2022/08/06 14:57:17;;;;;;;0.35;0.35;;;;;;;;;;6325445;28;20043;-82
2022/08/06 15:00:31;;;;;;;0.30;0.30;;;;;;;;;;6312152;28;20055;-81
2022/08/06 15:03:38;;;;;;;3.03;0.60;;;;;;;;;;6327695;28;20051;-81
2022/08/06 15:06:44;;;;;;;0.82;0.60;;;;;;;;;;6336130;28;20490;-79
2022/08/06 15:09:55;;;;;;;1.23;0.40;;;;;;;;;;6332936;28;20124;-81
2022/08/06 15:13:16;;;;;;;1.50;0.57;;;;;;;;;;6325094;28;21750;-80
2022/08/06 15:16:21;;;;;;;1.20;0.60;;;;;;;;;;6308715;28;20051;-82
2022/08/06 15:19:45;;;;;;;0.38;0.30;;;;;;;;;;6323052;28;20129;-83
2022/08/06 15:22:52;;;;;;;1.05;0.70;;;;;;;;;;6340448;28;20148;-80
2022/08/06 15:25:56;;;;;;;0.43;0.38;;;;;;;;;;6322310;28;20075;-83
2022/08/06 15:29:17;;;;;;;1.20;0.50;;;;;;;;;;6332835;28;20047;-84
2022/08/06 15:32:22;;;;;;;0.63;0.40;;;;;;;;;;6298056;28;20036;-82
2022/08/06 15:35:27;;;;;;;0.85;0.40;;;;;;;;;;6321604;28;20123;-82
2022/08/06 15:38:39;;;;;;;0.73;0.40;;;;;;;;;;6332911;28;20044;-82
2022/08/06 15:41:42;;;;;;;2.38;0.50;;;;;;;;;;6327137;28;20047;-78
2022/08/06 15:44:44;;;;;;;1.55;0.35;;;;;;;;;;6337773;28;20055;-79
2022/08/06 15:47:47;;;;;;;0.80;0.40;;;;;;;;;;6313243;28;20048;-80
2022/08/06 15:50:50;;;;;;;0.40;0.40;;;;;;;;;;6330019;28;20059;-78
2022/08/06 15:54:12;;;;;;;0.90;0.30;;;;;;;;;;6324026;28;20063;-83
2022/08/06 15:57:18;;;;;;;0.90;0.40;;;;;;;;;;6332239;28;20054;-80
2022/08/06 16:00:41;;;;;;;0.90;0.40;;;;;;;;;;6292004;28;20098;-81
2022/08/06 16:04:00;;;;;;;0.93;0.22;;;;;;;;;;6298834;28;20499;-84
2022/08/06 16:07:06;;;;;;;0.93;0.55;;;;;;;;;;6302780;28;20047;-83
2022/08/06 16:10:09;;;;;;;1.05;0.30;;;;;;;;;;6297401;28;20040;-84
2022/08/06 16:13:30;;;;;;;1.55;0.50;;;;;;;;;;6302473;28;20048;-85
2022/08/06 16:16:31;;;;;;;0.73;0.33;;;;;;;;;;6294229;28;20499;-83
2022/08/06 16:19:35;;;;;;;1.52;0.40;;;;;;;;;;6307160;28;20446;-84
2022/08/06 16:22:51;;;;;;;2.47;0.50;;;;;;;;;;6319100;28;20399;-84
2022/08/06 16:25:54;;;;;;;0.63;0.40;;;;;;;;;;6284411;28;20052;-84
2022/08/06 16:29:16;;;;;;;0.52;0.40;;;;;;;;;;6310483;28;20049;-83
2022/08/06 16:32:20;;;;;;;2.42;0.70;;;;;;;;;;6304966;28;20048;-84
2022/08/06 16:35:27;;;;;;;2.60;0.60;;;;;;;;;;6281811;28;20102;-84
2022/08/06 16:38:33;;;;;;;3.30;0.50;;;;;;;;;;6300162;28;20047;-82
2022/08/06 16:41:35;;;;;;;1.15;0.40;;;;;;;;;;6312086;28;20076;-83
2022/08/06 16:44:57;;;;;;;0.75;0.40;;;;;;;;;;6300757;28;20837;-83
2022/08/06 16:48:10;;;;;;;3.05;1.30;;;;;;;;;;6313443;28;20036;-83
2022/08/06 16:51:28;;;;;;;2.67;0.60;;;;;;;;;;6296563;28;20048;-83
2022/08/06 16:54:50;;;;;;;2.67;0.60;;;;;;;;;;6293944;28;20133;-83
2022/08/06 16:57:53;;;;;;;2.55;0.60;;;;;;;;;;6311285;28;20510;-83
2022/08/06 17:01:15;;;;;;;1.73;0.77;;;;;;;;;;6294369;28;20169;-83
2022/08/06 17:04:37;;;;;;;1.73;0.55;;;;;;;;;;6293468;28;20503;-84
2022/08/06 17:07:40;;;;;;;1.40;0.40;;;;;;;;;;6290043;28;20044;-83
2022/08/06 17:10:43;;;;;;;2.20;0.50;;;;;;;;;;6289057;28;20044;-82
2022/08/06 17:13:59;;;;;;;1.67;0.50;;;;;;;;;;6289479;28;20048;-82
2022/08/06 17:17:02;;;;;;;2.77;0.50;;;;;;;;;;6314508;28;20074;-82
2022/08/06 17:20:09;;;;;;;3.90;0.65;;;;;;;;;;6295475;28;20044;-82
2022/08/06 17:23:17;;;;;;;1.30;0.40;;;;;;;;;;6310292;28;20115;-82
2022/08/06 17:26:18;;;;;;;0.60;0.30;;;;;;;;;;6293109;28;20043;-83
2022/08/06 17:29:37;;;;;;;2.97;0.50;;;;;;;;;;6298452;28;20039;-83
2022/08/06 17:32:51;;;;;;;2.65;0.50;;;;;;;;;;6325834;28;20044;-83
2022/08/06 17:35:55;;;;;;;0.63;0.32;;;;;;;;;;6287141;28;20087;-82
2022/08/06 17:39:16;;;;;;;1.40;0.40;;;;;;;;;;6310617;28;20173;-83
2022/08/06 17:42:26;;;;;;;2.13;0.40;;;;;;;;;;6285755;28;20103;-82
2022/08/06 17:45:31;;;;;;;1.08;0.40;;;;;;;;;;6321011;28;20047;-82
2022/08/06 17:48:35;;;;;;;0.85;0.50;;;;;;;;;;6306399;28;20052;-82
2022/08/06 17:51:39;;;;;;;1.65;0.50;;;;;;;;;;6299709;28;20040;-81
2022/08/06 17:54:41;;;;;;;0.85;0.60;;;;;;;;;;6318441;28;20099;-82
2022/08/06 17:57:55;;;;;;;0.68;0.40;;;;;;;;;;6299936;28;20055;-82
2022/08/06 18:01:18;;;;;;;3.72;0.43;;;;;;;;;;6262724;28;20043;-82
2022/08/06 18:04:40;;;;;;;0.90;0.30;;;;;;;;;;6283026;28;20070;-82
2022/08/06 18:07:44;;;;;;;0.52;0.32;;;;;;;;;;6272691;28;20052;-83
2022/08/06 18:11:07;;;;;;;1.95;0.50;;;;;;;;;;6275791;28;20081;-83
2022/08/06 18:14:14;;;;;;;2.58;0.50;;;;;;;;;;6315037;28;20063;-83
2022/08/06 18:17:33;;;;;;;0.90;0.40;;;;;;;;;;6284414;28;20081;-83
2022/08/06 18:20:55;;;;;;;1.20;0.40;;;;;;;;;;6265577;28;20086;-82
2022/08/06 18:23:57;;;;;;;5.97;0.73;;;;;;;;;;6314774;28;20594;-82
2022/08/06 18:27:02;;;;;;;5.47;0.60;;;;;;;;;;6292424;28;20048;-82
2022/08/06 18:30:34;;;;;;;2.17;0.52;;;;;;;;;;6258833;28;20051;-82
2022/08/06 18:33:51;;;;;;;1.63;0.40;;;;;;;;;;6279626;28;20055;-83
2022/08/06 18:36:55;;;;;;;1.27;0.40;;;;;;;;;;6321430;28;20475;-82
2022/08/06 18:40:22;;;;;;;2.65;0.40;;;;;;;;;;6267850;28;20040;-82
2022/08/06 18:43:45;;;;;;;1.33;0.47;;;;;;;;;;6290429;28;20059;-83
2022/08/06 18:46:59;;;;;;;0.70;0.35;;;;;;;;;;6295849;28;20152;-82
2022/08/06 18:50:12;;;;;;;2.05;0.50;;;;;;;;;;6311069;28;20041;-82
2022/08/06 18:53:16;;;;;;;1.83;0.60;;;;;;;;;;6293844;28;20048;-83
2022/08/06 18:56:37;;;;;;;0.40;0.40;;;;;;;;;;6321264;28;20047;-83
2022/08/06 18:59:43;;;;;;;1.75;0.50;;;;;;;;;;6310304;28;20048;-82
2022/08/06 19:02:53;;;;;;;1.80;0.50;;;;;;;;;;6292686;28;20040;-83
2022/08/06 19:05:55;;;;;;;0.85;0.75;;;;;;;;;;6275940;28;20046;-84
2022/08/06 19:09:02;;;;;;;0.73;0.53;;;;;;;;;;6308315;28;20150;-84
2022/08/06 19:12:18;;;;;;;1.48;0.45;;;;;;;;;;6305113;28;20052;-84
2022/08/06 19:15:32;;;;;;;1.30;0.67;;;;;;;;;;6247359;28;21458;-85
2022/08/06 19:22:27;;;;;;;2.63;0.85;;;;;;;;;;6273041;28;20043;-83
2022/08/06 19:25:30;;;;;;;3.40;1.25;;;;;;;;;;6287002;28;20048;-85
2022/08/06 19:28:57;;;;;;;1.20;1.10;;;;;;;;;;6218274;28;20130;-84
2022/08/06 19:32:08;;;;;;;1.20;1.10;;;;;;;;;;6199426;28;20710;-84